Terminal Aerodrome Forecast
Issued by NWS

Home | Current Version | Previous Version | Text Only | Print | Product List | Glossary On
Versions: 1 2 3 4 5 6 7 8 9 10 11 12
000
FTUS45 KRIW 242320
TAFLND
TAF
KLND 242320Z 2500/2524 05007KT P6SM VCSH SCT060 BKN090
     FM250600 34006KT P6SM VCSH BKN030
     FM251100 33006KT P6SM -SHRA OVC020=

USA.gov is the U.S. government's official web portal to all federal, state and local government web resources and services.